Terminal Aerodrome Forecast
Issued by NWS

Home | Current Version | Previous Version | Text Only | Print | Product List | Glossary On
Versions: 1 2 3 4 5 6 7 8 9 10 11 12
000
FTUS43 KGRR 282300 RRA
TAFJXN
TAF
KJXN 282343Z 2900/2924 16010KT P6SM OVC150
     FM290400 17012KT P6SM OVC120 WS020/18050KT
     FM290600 17014KT 4SM -FZRAPL OVC025 WS020/20050KT
     FM291000 17014KT 3SM -FZRAPL OVC009
     FM291600 25010KT 1SM -SNPL OVC009
     FM292000 30015G25KT 5SM -SHSN OVC015=

USA.gov is the U.S. government's official web portal to all federal, state and local government web resources and services.